Terminal Aerodrome Forecast
Issued by NWS

Home | Current Version | Previous Version | Text Only | Print | Product List | Glossary On
Versions: 1 2 3 4 5 6 7 8 9 10 11 12 13 14 15 16 17
078
FTUS43 KAPX 271756 CCA
TAFTVC
TAF COR
KTVC 271756Z 2717/2818 09007KT P6SM SCT015 OVC030
      TEMPO 2718/2720 3SM SHRA BR OVC015
     FM272000 11008KT 3SM BR OVC010
     FM280200 17008KT 3SM BR OVC010
     FM280500 22008KT 3SM BR BKN005
     FM280800 27008KT 3SM BR BKN003
     FM281200 30008KT P6SM BKN003
     FM281500 31005KT P6SM SCT050=

USA.gov is the U.S. government's official web portal to all federal, state and local government web resources and services.